Time,TemperatureF,DewpointF,PressureIn,WindDirection,WindDirectionDegrees,WindSpeedMPH,WindSpeedGustMPH,Humidity,HourlyPrecipIn,Conditions,Clouds,dailyrainin,SoftwareType,DateUTC
2013-04-22 00:11:00,39.6,39.1,30.49,ESE,112,0.0,-999.0,98,-99.99,,,0.00,Acu-Link.com,2013-04-22 04:11:00,
2013-04-22 00:26:00,39.6,39.1,30.51,ESE,112,0.0,-999.0,98,-99.99,,,0.00,Acu-Link.com,2013-04-22 04:26:00,
2013-04-22 00:42:00,39.4,38.9,30.50,East,90,0.0,-999.0,98,-99.99,,,0.00,Acu-Link.com,2013-04-22 04:42:00,
2013-04-22 00:57:00,39.2,38.7,30.50,East,90,0.0,-999.0,98,-99.99,,,0.00,Acu-Link.com,2013-04-22 04:57:00,
2013-04-22 01:12:00,38.8,38.3,30.50,ESE,112,0.0,-999.0,98,-99.99,,,0.00,Acu-Link.com,2013-04-22 05:12:00,
2013-04-22 01:28:00,38.5,38.0,30.49,ESE,112,0.0,-999.0,98,-99.99,,,0.00,Acu-Link.com,2013-04-22 05:28:00,
2013-04-22 01:43:00,38.3,37.8,30.49,ESE,112,0.0,-999.0,98,-99.99,,,0.00,Acu-Link.com,2013-04-22 05:43:00,
2013-04-22 01:58:00,38.1,37.6,30.51,ESE,112,0.0,-999.0,98,-99.99,,,0.00,Acu-Link.com,2013-04-22 05:58:00,
2013-04-22 02:14:00,37.4,36.9,30.50,East,90,0.0,-999.0,98,-99.99,,,0.00,Acu-Link.com,2013-04-22 06:14:00,
2013-04-22 02:29:00,36.9,36.4,30.51,ESE,112,0.0,-999.0,98,-99.99,,,0.00,Acu-Link.com,2013-04-22 06:29:00,
2013-04-22 02:44:00,36.7,36.2,30.49,East,90,0.0,-999.0,98,-99.99,,,0.00,Acu-Link.com,2013-04-22 06:44:00,
2013-04-22 02:59:00,36.1,35.6,30.51,East,90,0.0,-999.0,98,-99.99,,,0.00,Acu-Link.com,2013-04-22 06:59:00,
2013-04-22 03:15:00,36.0,35.5,30.51,East,90,0.0,-999.0,98,-99.99,,,0.00,Acu-Link.com,2013-04-22 07:15:00,
2013-04-22 03:30:00,36.0,34.2,30.50,NE,45,0.0,-999.0,93,-99.99,,,0.00,Acu-Link.com,2013-04-22 07:30:00,
2013-04-22 03:45:00,36.0,35.2,30.50,NE,45,0.0,-999.0,97,-99.99,,,0.00,Acu-Link.com,2013-04-22 07:45:00,
2013-04-22 04:01:00,35.8,34.0,30.52,NE,45,0.0,-999.0,93,-99.99,,,0.00,Acu-Link.com,2013-04-22 08:01:00,
2013-04-22 04:16:00,35.4,33.8,30.50,NE,45,0.0,-999.0,94,-99.99,,,0.00,Acu-Link.com,2013-04-22 08:16:00,
2013-04-22 04:31:00,35.2,33.1,30.50,ENE,67,0.0,-999.0,92,-99.99,,,0.00,Acu-Link.com,2013-04-22 08:31:00,
2013-04-22 04:47:00,34.9,31.4,30.50,NE,45,0.0,-999.0,87,-99.99,,,0.00,Acu-Link.com,2013-04-22 08:47:00,
2013-04-22 05:02:00,35.1,30.8,30.50,NNE,22,0.0,-999.0,84,-99.99,,,0.00,Acu-Link.com,2013-04-22 09:02:00,
2013-04-22 05:17:00,34.9,30.3,30.50,NE,45,0.0,-999.0,83,-99.99,,,0.00,Acu-Link.com,2013-04-22 09:17:00,
2013-04-22 05:32:00,35.1,30.2,30.53,NE,45,0.0,-999.0,82,-99.99,,,0.00,Acu-Link.com,2013-04-22 09:32:00,
2013-04-22 05:48:00,35.6,30.4,30.52,NE,45,0.0,-999.0,81,-99.99,,,0.00,Acu-Link.com,2013-04-22 09:48:00,
2013-04-22 06:03:00,35.8,30.9,30.52,NE,45,0.0,-999.0,82,-99.99,,,0.00,Acu-Link.com,2013-04-22 10:03:00,
2013-04-22 06:18:00,35.6,31.5,30.53,NE,45,0.0,-999.0,85,-99.99,,,0.00,Acu-Link.com,2013-04-22 10:18:00,
2013-04-22 06:33:00,36.0,31.9,30.52,NE,45,0.0,-999.0,85,-99.99,,,0.00,Acu-Link.com,2013-04-22 10:33:00,
2013-04-22 06:49:00,36.5,32.7,30.52,ENE,67,3.2,-999.0,86,-99.99,,,0.00,Acu-Link.com,2013-04-22 10:49:00,
2013-04-22 07:04:00,37.6,33.2,30.52,NE,45,5.3,-999.0,84,-99.99,,,0.00,Acu-Link.com,2013-04-22 11:04:00,
2013-04-22 07:19:00,37.8,34.6,30.54,ENE,67,3.7,-999.0,88,-99.99,,,0.00,Acu-Link.com,2013-04-22 11:19:00,
2013-04-22 07:35:00,39.4,35.3,30.52,NE,45,0.0,-999.0,85,-99.99,,,0.00,Acu-Link.com,2013-04-22 11:35:00,
2013-04-22 07:50:00,39.9,36.4,30.52,ENE,67,0.0,-999.0,87,-99.99,,,0.00,Acu-Link.com,2013-04-22 11:50:00,
2013-04-22 08:05:00,41.0,35.9,30.52,South,180,0.0,-999.0,82,-99.99,,,0.00,Acu-Link.com,2013-04-22 12:05:00,
2013-04-22 08:20:00,42.1,35.1,30.52,NE,45,6.3,-999.0,76,-99.99,,,0.00,Acu-Link.com,2013-04-22 12:20:00,
2013-04-22 08:35:00,44.8,35.3,30.51,ESE,112,0.0,-999.0,69,-99.99,,,0.00,Acu-Link.com,2013-04-22 12:35:00,
2013-04-22 08:51:00,46.6,34.7,30.52,East,90,0.0,-999.0,63,-99.99,,,0.00,Acu-Link.com,2013-04-22 12:51:00,
2013-04-22 09:06:00,48.4,34.3,30.53,East,90,0.0,-999.0,58,-99.99,,,0.00,Acu-Link.com,2013-04-22 13:06:00,
2013-04-22 09:21:00,49.5,35.3,30.54,East,90,1.1,-999.0,58,-99.99,,,0.00,Acu-Link.com,2013-04-22 13:21:00,
2013-04-22 09:36:00,50.7,33.2,30.55,East,90,0.0,-999.0,51,-99.99,,,0.00,Acu-Link.com,2013-04-22 13:36:00,
2013-04-22 09:52:00,48.9,33.0,30.54,WSW,247,0.0,-999.0,54,-99.99,,,0.00,Acu-Link.com,2013-04-22 13:52:00,
2013-04-22 10:07:00,51.8,33.8,30.53,SSE,157,0.0,-999.0,50,-99.99,,,0.00,Acu-Link.com,2013-04-22 14:07:00,
2013-04-22 10:22:00,52.9,33.2,30.54,NNE,22,4.2,-999.0,47,-99.99,,,0.00,Acu-Link.com,2013-04-22 14:22:00,
2013-04-22 10:38:00,52.3,32.7,30.52,ESE,112,0.0,-999.0,47,-99.99,,,0.00,Acu-Link.com,2013-04-22 14:38:00,
2013-04-22 10:53:00,54.1,32.1,30.53,ENE,67,0.0,-999.0,43,-99.99,,,0.00,Acu-Link.com,2013-04-22 14:53:00,
2013-04-22 11:08:00,56.5,33.7,30.51,SSE,157,0.0,-999.0,42,-99.99,,,0.00,Acu-Link.com,2013-04-22 15:08:00,
2013-04-22 11:24:00,56.7,33.3,30.51,SE,135,1.1,-999.0,41,-99.99,,,0.00,Acu-Link.com,2013-04-22 15:24:00,
2013-04-22 11:39:00,58.1,34.5,30.52,ESE,112,1.7,-999.0,41,-99.99,,,0.00,Acu-Link.com,2013-04-22 15:39:00,
2013-04-22 11:54:00,57.6,34.1,30.51,SE,135,0.0,-999.0,41,-99.99,,,0.00,Acu-Link.com,2013-04-22 15:54:00,
2013-04-22 12:09:00,57.4,35.1,30.52,East,90,0.0,-999.0,43,-99.99,,,0.00,Acu-Link.com,2013-04-22 16:09:00,
2013-04-22 12:25:00,57.2,37.2,30.50,West,270,0.0,-999.0,47,-99.99,,,0.00,Acu-Link.com,2013-04-22 16:25:00,
2013-04-22 12:40:00,57.6,37.0,30.47,SSE,157,1.1,-999.0,46,-99.99,,,0.00,Acu-Link.com,2013-04-22 16:40:00,
2013-04-22 12:55:00,57.2,36.6,30.48,ESE,112,0.0,-999.0,46,-99.99,,,0.00,Acu-Link.com,2013-04-22 16:55:00,
2013-04-22 13:11:00,59.2,39.5,30.50,NE,45,0.0,-999.0,48,-99.99,,,0.00,Acu-Link.com,2013-04-22 17:11:00,
2013-04-22 13:26:00,59.5,39.8,30.47,ESE,112,0.0,-999.0,48,-99.99,,,0.00,Acu-Link.com,2013-04-22 17:26:00,
2013-04-22 13:41:00,58.5,39.4,30.47,ESE,112,0.0,-999.0,49,-99.99,,,0.00,Acu-Link.com,2013-04-22 17:41:00,
2013-04-22 13:57:00,58.1,38.5,30.47,East,90,2.7,-999.0,48,-99.99,,,0.00,Acu-Link.com,2013-04-22 17:57:00,
2013-04-22 14:12:00,59.5,39.3,30.45,West,270,2.7,-999.0,47,-99.99,,,0.00,Acu-Link.com,2013-04-22 18:12:00,
2013-04-22 14:27:00,61.3,39.2,30.44,East,90,1.1,-999.0,44,-99.99,,,0.00,Acu-Link.com,2013-04-22 18:27:00,
2013-04-22 14:42:00,60.1,37.5,30.46,SE,135,0.0,-999.0,43,-99.99,,,0.00,Acu-Link.com,2013-04-22 18:42:00,
2013-04-22 14:57:00,59.2,37.9,30.44,WSW,247,1.1,-999.0,45,-99.99,,,0.00,Acu-Link.com,2013-04-22 18:57:00,
2013-04-22 15:13:00,60.4,39.0,30.44,East,90,0.0,-999.0,45,-99.99,,,0.00,Acu-Link.com,2013-04-22 19:13:00,
2013-04-22 15:28:00,58.6,38.4,30.45,SSE,157,0.0,-999.0,47,-99.99,,,0.00,Acu-Link.com,2013-04-22 19:28:00,
2013-04-22 15:43:00,57.0,38.0,30.43,SSW,202,1.1,-999.0,49,-99.99,,,0.00,Acu-Link.com,2013-04-22 19:43:00,
2013-04-22 15:59:00,58.3,39.2,30.43,East,90,0.0,-999.0,49,-99.99,,,0.00,Acu-Link.com,2013-04-22 19:59:00,
2013-04-22 16:14:00,57.4,39.9,30.43,ESE,112,1.7,-999.0,52,-99.99,,,0.00,Acu-Link.com,2013-04-22 20:14:00,
2013-04-22 16:29:00,57.9,37.8,30.42,NE,45,0.0,-999.0,47,-99.99,,,0.00,Acu-Link.com,2013-04-22 20:29:00,
2013-04-22 16:44:00,56.1,35.6,30.41,ESE,112,0.0,-999.0,46,-99.99,,,0.00,Acu-Link.com,2013-04-22 20:44:00,
2013-04-22 17:00:00,55.8,35.3,30.41,South,180,1.7,-999.0,46,-99.99,,,0.00,Acu-Link.com,2013-04-22 21:00:00,
2013-04-22 17:15:00,55.2,35.9,30.40,ESE,112,0.0,-999.0,48,-99.99,,,0.00,Acu-Link.com,2013-04-22 21:15:00,
2013-04-22 17:30:00,53.8,36.6,30.43,SSE,157,5.8,-999.0,52,-99.99,,,0.00,Acu-Link.com,2013-04-22 21:30:00,
2013-04-22 17:45:00,52.5,35.9,30.42,East,90,0.0,-999.0,53,-99.99,,,0.00,Acu-Link.com,2013-04-22 21:45:00,
2013-04-22 18:01:00,51.6,36.0,30.41,ESE,112,1.1,-999.0,55,-99.99,,,0.00,Acu-Link.com,2013-04-22 22:01:00,
2013-04-22 18:16:00,51.3,38.7,30.41,SSE,157,2.2,-999.0,62,-99.99,,,0.00,Acu-Link.com,2013-04-22 22:16:00,
2013-04-22 18:31:00,49.6,39.5,30.40,South,180,2.2,-999.0,68,-99.99,,,0.00,Acu-Link.com,2013-04-22 22:31:00,
2013-04-22 18:47:00,48.2,41.3,30.41,East,90,0.0,-999.0,77,-99.99,,,0.00,Acu-Link.com,2013-04-22 22:47:00,
2013-04-22 19:02:00,47.3,43.6,30.39,SE,135,0.0,-999.0,87,-99.99,,,0.00,Acu-Link.com,2013-04-22 23:02:00,
2013-04-22 19:17:00,46.2,44.3,30.40,SSE,157,0.0,-999.0,93,-99.99,,,0.00,Acu-Link.com,2013-04-22 23:17:00,
2013-04-22 19:33:00,45.1,44.6,30.40,NNE,22,0.0,-999.0,98,-99.99,,,0.00,Acu-Link.com,2013-04-22 23:33:00,
2013-04-22 19:48:00,43.9,43.4,30.39,NE,45,0.0,-999.0,98,-99.99,,,0.00,Acu-Link.com,2013-04-22 23:48:00,
2013-04-22 20:03:00,43.5,43.0,30.40,West,270,0.0,-999.0,98,-99.99,,,0.00,Acu-Link.com,2013-04-23 00:03:00,
2013-04-22 20:18:00,42.8,42.3,30.40,ESE,112,0.0,-999.0,98,-99.99,,,0.00,Acu-Link.com,2013-04-23 00:18:00,
2013-04-22 20:34:00,42.4,41.9,30.40,SSE,157,0.0,-999.0,98,-99.99,,,0.00,Acu-Link.com,2013-04-23 00:34:00,
2013-04-22 20:49:00,42.1,41.6,30.40,SSE,157,0.0,-999.0,98,-99.99,,,0.00,Acu-Link.com,2013-04-23 00:49:00,
2013-04-22 21:04:00,41.7,41.2,30.41,SSE,157,0.0,-999.0,98,-99.99,,,0.00,Acu-Link.com,2013-04-23 01:04:00,
2013-04-22 21:20:00,41.4,40.9,30.40,WSW,247,0.0,-999.0,98,-99.99,,,0.00,Acu-Link.com,2013-04-23 01:20:00,
2013-04-22 21:35:00,41.0,40.5,30.41,SE,135,0.0,-999.0,98,-99.99,,,0.00,Acu-Link.com,2013-04-23 01:35:00,
2013-04-22 21:50:00,41.0,40.5,30.40,ESE,112,0.0,-999.0,98,-99.99,,,0.00,Acu-Link.com,2013-04-23 01:50:00,
2013-04-22 22:06:00,40.6,40.1,30.40,ESE,112,0.0,-999.0,98,-99.99,,,0.00,Acu-Link.com,2013-04-23 02:06:00,
2013-04-22 22:21:00,40.5,40.0,30.40,ESE,112,0.0,-999.0,98,-99.99,,,0.00,Acu-Link.com,2013-04-23 02:21:00,
2013-04-22 22:36:00,40.1,39.6,30.38,ESE,112,0.0,-999.0,98,-99.99,,,0.00,Acu-Link.com,2013-04-23 02:36:00,
2013-04-22 22:51:00,39.9,39.4,30.38,SE,135,0.0,-999.0,98,-99.99,,,0.00,Acu-Link.com,2013-04-23 02:51:00,
2013-04-22 23:07:00,39.6,38.8,30.38,SSW,202,0.0,-999.0,97,-99.99,,,0.00,Acu-Link.com,2013-04-23 03:07:00,
2013-04-22 23:22:00,39.2,37.3,30.40,East,90,0.0,-999.0,93,-99.99,,,0.00,Acu-Link.com,2013-04-23 03:22:00,
2013-04-22 23:37:00,39.2,36.2,30.38,ENE,67,0.0,-999.0,89,-99.99,,,0.00,Acu-Link.com,2013-04-23 03:37:00,
2013-04-22 23:53:00,38.8,35.3,30.39,ENE,67,0.0,-999.0,87,-99.99,,,0.00,Acu-Link.com,2013-04-23 03:53:00,